Estación Meteorológica Peña el Pijo (Robertgarden) [ 11/20/17 01:24:28 CET ]

Fecha Hora Presion(HPa) Temp (°C) Humedad % Rocio (°C) Viento ( m/s) Direccion Lluvia 1Hora(mm) Lluvia 24H(mm) LLuvia Total(mm)
2017-Nov-17 01:01:47 1011.100 1.0 63 -5.3         1468.01
2017-Nov-17 02:03:07 1010.600 0.7 64 -5.4         1468.01
2017-Nov-17 03:02:02 1010.400 -0.1 66 -5.7         1468.01
2017-Nov-17 04:01:46 1010.400 0.1 67 -5.3         1468.01
2017-Nov-17 05:01:58 1010.000 -0.3 68 -5.5         1468.01
2017-Nov-17 06:01:46 1010.000 -0.6 70 -5.4         1468.01
2017-Nov-17 07:01:59 1009.900 -0.8 71 -5.4         1468.01
2017-Nov-17 08:01:56 1010.300 -1.0 71 -5.6         1468.01
2017-Nov-17 09:01:46 1010.600 -0.1 74 -4.2         1468.01
2017-Nov-17 10:01:39 1010.800 10.1 57 1.9         1468.01
2017-Nov-17 11:01:42 1010.600 16.3 37 1.5         1468.01
2017-Nov-17 12:01:56 1010.000 17.6 29 -0.7         1468.01
2017-Nov-17 13:01:42 1009.600 18.6 26 -1.5         1468.01
2017-Nov-17 14:01:57 1009.100 20.2 23 -1.8         1468.01
2017-Nov-17 15:01:40 1008.700 20.6 22 -2.0         1468.01
2017-Nov-17 16:01:55 1008.400 19.4 23 -2.5         1468.01
2017-Nov-17 17:01:57 1008.400 16.2 27 -3.0         1468.01
2017-Nov-17 18:01:53 1008.800 13.6 30 -3.7         1468.01
2017-Nov-17 19:01:56 1009.600 8.4 39 -4.8         1468.01
2017-Nov-17 20:01:46 1010.000 5.5 47 -5.0         1468.01
2017-Nov-17 21:01:37 1010.200 4.3 50 -5.2         1468.01
2017-Nov-17 22:01:55 1010.500 3.6 53 -5.1         1468.01
2017-Nov-17 23:01:44 1010.700 2.8 58 -4.7         1468.01

Temperatura Máxima:20°    Temperatura Mínima:-1°
Presión Máxima:1011.100 Hpa    Presión Mínima:1008.400 Hpa


Volver